Explorer — DHRP — position and weather

sailwx.info

Track history (hours):
 
Tides and Currents Weather Stations Pressure Air Temp Water Temp Dewpoint Dewpoint Depression Visibility Wind Speed Wind Dir Waves Ship Positions

Explorer

Last reported at 2016-Nov-11 15:33 UTC. Time now 2016-Dec-09 02:04 UTC.
Position N 37°58' E 023°34'.
Warning: this ship's position is 27 days out of date.

Length 41 m; draft 3 m.

Type: Pleasure craft. MMSI: 211293610.

Date/timePositionNaut miles runAvg speedWind from/ knotsBaromVisibWave heightAir tempDewpointWater temp
2016-Nov-11 15:33N 37°58' E 023°34'0 0.0
2016-Nov-11 14:33N 37°58' E 023°34'16 4.1
2016-Nov-11 10:33N 37°54' E 023°14'10 9.4
2016-Nov-11 09:33N 37°55' E 023°02'1 0.3
2016-Nov-11 06:32N 37°55' E 023°01'0 0.0
2016-Nov-11 05:32N 37°55' E 023°01'0 0.0
2016-Nov-11 04:32N 37°55' E 023°01'0 0.0
2016-Nov-11 03:21N 37°55' E 023°01'0 0.0
2016-Nov-11 02:32N 37°55' E 023°01'0 0.0
2016-Nov-11 01:23N 37°55' E 023°01'0 0.0
2016-Nov-11 00:23N 37°55' E 023°01'0 0.0
2016-Nov-10 23:32N 37°55' E 023°01'0 0.0
2016-Nov-10 22:32N 37°55' E 023°01'0 0.0
2016-Nov-10 20:32N 37°55' E 023°01'0 0.0
2016-Nov-10 18:32N 37°55' E 023°01'0 0.0
2016-Nov-10 16:24N 37°55' E 023°01'0 0.0
2016-Nov-10 15:29N 37°55' E 023°01'0 0.0
2016-Nov-09 08:33N 37°55' E 023°01'8 8.4
2016-Nov-09 07:33N 37°53' E 023°12'17 8.4
2016-Nov-09 05:33N 37°54' E 023°33'4 4.0
2016-Nov-09 04:33N 37°58' E 023°34'0 0.0
2016-Nov-07 06:18N 37°57' E 023°34'  
Track history (hours):
 
Tides and Currents Weather Stations Pressure Air Temp Water Temp Dewpoint Dewpoint Depression Visibility Wind Speed Wind Dir Waves Ship Positions

Explorer

Last reported at 2016-Nov-11 15:33 UTC. Time now 2016-Dec-09 02:04 UTC.
Position N 37°58' E 023°34'.
Warning: this ship's position is 27 days out of date.

Length 41 m; draft 3 m.

Type: Pleasure craft. MMSI: 211293610.

Date/timePositionNaut miles runAvg speedWind from/ knotsBaromVisibWave heightAir tempDewpointWater temp
2016-Nov-11 15:33N 37°58' E 023°34'0 0.0
2016-Nov-11 14:33N 37°58' E 023°34'16 4.1
2016-Nov-11 10:33N 37°54' E 023°14'10 9.4
2016-Nov-11 09:33N 37°55' E 023°02'1 0.3
2016-Nov-11 06:32N 37°55' E 023°01'0 0.0
2016-Nov-11 05:32N 37°55' E 023°01'0 0.0
2016-Nov-11 04:32N 37°55' E 023°01'0 0.0
2016-Nov-11 03:21N 37°55' E 023°01'0 0.0
2016-Nov-11 02:32N 37°55' E 023°01'0 0.0
2016-Nov-11 01:23N 37°55' E 023°01'0 0.0
2016-Nov-11 00:23N 37°55' E 023°01'0 0.0
2016-Nov-10 23:32N 37°55' E 023°01'0 0.0
2016-Nov-10 22:32N 37°55' E 023°01'0 0.0
2016-Nov-10 20:32N 37°55' E 023°01'0 0.0
2016-Nov-10 18:32N 37°55' E 023°01'0 0.0
2016-Nov-10 16:24N 37°55' E 023°01'0 0.0
2016-Nov-10 15:29N 37°55' E 023°01'0 0.0
2016-Nov-09 08:33N 37°55' E 023°01'8 8.4
2016-Nov-09 07:33N 37°53' E 023°12'17 8.4
2016-Nov-09 05:33N 37°54' E 023°33'4 4.0
2016-Nov-09 04:33N 37°58' E 023°34'0 0.0
2016-Nov-07 06:18N 37°57' E 023°34'  

Dump ship's entire track history